Amado, AZ

1:13 PM MST on March 29, 2015 (GMT -0700)
Elephant Head | | Change Station
CLOSE
Current Station
Personal Weather Station
Location: Amado, AZ
Elevation: 3155 ft
Nearby Weather Stations

Elev 3155 ft 31.74 °N, 111.01 °W | Updated 26 seconds ago

Partly Cloudy
Partly Cloudy
94.1 °F
Feels Like 90 °F
N
1.3
Wind Variable Wind from SE
Gusts 3.8 mph

Today
High -- | Low -- °F
--% Chance of Precip.
Yesterday
High -- | Low -- °F
Precip. -- in
6:16 AM 6:41 PM
Waxing Gibbous, 74% visible
Pressure 29.99 in
Visibility 10.0 miles
Clouds Clear
Heat Index 90 °F
Dew Point -7 °F
Humidity 2%
Rainfall 0.00 in
Snow Depth Not available.
UV 11 out of 12
Pollen 10.40 out of 12
Air Quality Not available.
Flu Activity Not available.
METAR KOLS 291954Z AUTO VRB04G18KT 10SM CLR 29/M06 A3016 RMK AO2 SLP155 T02941061

More Conditions Fewer Conditions

Pressure 29.99 in
Visibility 10.0 miles
Clouds Clear
Heat Index 90 °F
Dew Point -7 °F
Humidity 2%
Rainfall 0.00 in
Snow Depth Not available.
UV 11 out of 12
Pollen 10.40 out of 12
Air Quality Not available.
Flu Activity Not available.
METAR KOLS 291954Z AUTO VRB04G18KT 10SM CLR 29/M06 A3016 RMK AO2 SLP155 T02941061

More Conditions Fewer Conditions

10-Day Weather Forecast

Almanac

Astronomy

Mar. 29, 2015 Rise Set
Actual Time
Civil Twilight
Nautical Twilight
Astronomical Twilight
Moon
Length of Visible Light
Length of Day
Tomorrow will be .
, % of the Moon is Illuminated

Today's Extremes

State Highs State Lows

Community

WunderPhotos

Upload Photos

1,809,341 photos uploaded!

WunderBlogs® & News

Nearby

Air Quality

  Air Quality AQ Index Pollutant
Not available.

Snow Depth

Station Depth Elevation

Earthquake Activity

City Distance Mag. Time & Date
Minimum magnitude displayed is 2.5.

Coastal Water Temperatures

Place Temperature

Stations

Nearby Weather Stations

Station Location Temp. Windchill Dew Point Humidity Wind Precip. Elev Updated Type